createdAt,value
2019-04-21T00:01:22.360Z,53.94
2019-04-21T00:03:57.297Z,54.06
2019-04-21T00:07:05.780Z,54.49
2019-04-21T00:09:24.260Z,54.32
2019-04-21T00:11:48.247Z,54.07
2019-04-21T00:14:16.650Z,54.10
2019-04-21T00:16:45.441Z,54.13
2019-04-21T00:19:20.718Z,54.29
2019-04-21T00:21:53.447Z,54.53
2019-04-21T00:24:34.677Z,54.56
2019-04-21T00:27:14.429Z,54.90
2019-04-21T00:29:47.856Z,54.66
2019-04-21T00:32:09.990Z,54.73
2019-04-21T00:34:30.179Z,54.70
2019-04-21T00:37:12.115Z,54.46
2019-04-21T00:42:22.779Z,54.79
2019-04-21T00:44:56.564Z,54.83
2019-04-21T00:47:33.022Z,55.48
2019-04-21T00:50:07.554Z,56.06
2019-04-21T00:55:29.173Z,56.74
2019-04-21T01:00:22.106Z,57.18
2019-04-21T01:02:57.980Z,57.41
2019-04-21T01:05:26.705Z,57.37
2019-04-21T01:08:01.119Z,57.74
2019-04-21T01:10:24.268Z,58.34
2019-04-21T01:13:09.592Z,58.40
2019-04-21T01:15:44.735Z,58.46
2019-04-21T01:18:12.382Z,58.13
2019-04-21T01:20:24.155Z,58.48
2019-04-21T01:22:55.877Z,57.37
2019-04-21T01:25:34.685Z,57.42
2019-04-21T01:28:16.917Z,57.42
2019-04-21T01:30:53.567Z,56.77
2019-04-21T01:33:26.073Z,56.78
2019-04-21T01:35:53.724Z,56.51
2019-04-21T01:38:34.229Z,56.13
2019-04-21T01:41:07.101Z,55.83
2019-04-21T01:43:34.961Z,55.81
2019-04-21T01:46:06.689Z,55.34
2019-04-21T01:48:34.462Z,55.31
2019-04-21T01:51:07.570Z,55.28
2019-04-21T01:53:56.075Z,56.04
2019-04-21T01:56:47.895Z,55.12
2019-04-21T01:59:03.478Z,54.08
2019-04-21T02:01:54.173Z,54.71
2019-04-21T02:04:29.332Z,54.27
2019-04-21T02:06:52.829Z,54.82
2019-04-21T02:09:30.912Z,54.36
2019-04-21T02:12:10.089Z,55.26
2019-04-21T02:14:46.124Z,55.37
2019-04-21T02:17:14.756Z,55.53
2019-04-21T02:19:45.185Z,55.15
2019-04-21T02:22:24.614Z,55.00
2019-04-21T02:24:56.798Z,54.98
2019-04-21T02:27:23.701Z,55.04
2019-04-21T02:29:59.817Z,55.58
2019-04-21T02:37:50.373Z,55.96
2019-04-21T02:40:17.498Z,56.30
2019-04-21T02:43:07.322Z,56.63
2019-04-21T02:45:22.923Z,57.18
2019-04-21T02:47:54.297Z,57.52
2019-04-21T02:50:30.509Z,57.16
2019-04-21T02:53:07.138Z,56.75
2019-04-21T02:55:30.915Z,57.15
2019-04-21T02:58:17.307Z,57.51
2019-04-21T03:01:08.072Z,57.73
2019-04-21T03:03:50.592Z,58.51
2019-04-21T03:06:27.279Z,58.24
2019-04-21T03:09:01.176Z,58.66
2019-04-21T03:11:18.667Z,59.64
2019-04-21T03:16:26.344Z,61.73
2019-04-21T03:21:38.690Z,60.20
2019-04-21T03:24:13.796Z,59.56
2019-04-21T03:29:28.222Z,58.96
2019-04-21T03:34:50.382Z,59.99
2019-04-21T03:39:18.260Z,61.73
2019-04-21T03:42:01.195Z,62.02
2019-04-21T03:44:42.195Z,61.96
2019-04-21T03:47:09.149Z,63.56
2019-04-21T03:54:41.661Z,64.33
2019-04-21T03:57:19.990Z,64.15
2019-04-21T03:59:45.526Z,64.96
2019-04-21T04:02:52.378Z,66.63
2019-04-21T04:05:10.945Z,64.11
2019-04-21T04:10:24.477Z,65.72
2019-04-21T04:12:52.213Z,62.66
2019-04-21T04:15:34.656Z,62.62
2019-04-21T04:17:53.939Z,64.67
2019-04-21T04:20:28.654Z,66.06
2019-04-21T04:23:03.373Z,66.83
2019-04-21T04:28:08.543Z,67.90
2019-04-21T04:30:43.654Z,68.59
2019-04-21T04:33:21.279Z,68.74
2019-04-21T04:38:22.337Z,68.35
2019-04-21T04:41:09.721Z,68.53
2019-04-21T04:46:02.661Z,67.48
2019-04-21T04:48:34.862Z,66.95
2019-04-21T04:51:12.927Z,64.62
2019-04-21T04:53:44.271Z,58.61
2019-04-21T05:19:16.099Z,39.85
2019-04-21T05:21:40.463Z,39.28
2019-04-21T05:24:08.099Z,39.47
2019-04-21T05:26:42.220Z,40.86
2019-04-21T05:29:08.997Z,39.75
2019-04-21T05:32:00.537Z,37.68
2019-04-21T05:34:42.986Z,38.43
2019-04-21T05:37:25.779Z,38.51
2019-04-21T05:40:00.702Z,39.10
2019-04-21T05:42:37.782Z,36.60
2019-04-21T05:45:34.796Z,37.24
2019-04-21T05:48:07.633Z,35.04
2019-04-21T05:50:26.552Z,36.22
2019-04-21T05:52:58.562Z,35.75
2019-04-21T05:58:09.725Z,33.88
2019-04-21T06:01:10.712Z,32.65
2019-04-21T06:03:30.727Z,31.06
2019-04-21T06:06:10.084Z,32.76
2019-04-21T06:08:32.846Z,29.99
2019-04-21T06:11:11.647Z,30.04
2019-04-21T06:13:51.188Z,29.53
2019-04-21T06:16:07.529Z,29.46
2019-04-21T06:18:47.598Z,26.93
2019-04-21T06:21:16.526Z,26.69
2019-04-21T06:23:45.623Z,28.97
2019-04-21T06:28:50.351Z,25.80
2019-04-21T06:31:57.817Z,23.21
2019-04-21T06:33:57.607Z,25.00
2019-04-21T06:39:25.905Z,22.66
2019-04-21T06:41:55.686Z,29.03
2019-04-21T06:44:30.573Z,25.11
2019-04-21T06:46:59.268Z,21.73
2019-04-21T06:49:32.689Z,22.34
2019-04-21T06:52:11.436Z,20.38
2019-04-21T06:54:44.766Z,23.09
2019-04-21T06:57:10.014Z,24.02
2019-04-21T06:59:38.472Z,25.90
2019-04-21T07:02:35.167Z,27.82
2019-04-21T07:04:51.505Z,25.68
2019-04-21T07:07:18.739Z,25.25
2019-04-21T07:09:53.078Z,28.80
2019-04-21T07:12:23.195Z,26.72
2019-04-21T07:14:52.769Z,24.56
2019-04-21T07:17:30.735Z,25.95
2019-04-21T07:22:37.722Z,25.91
2019-04-21T07:25:08.823Z,22.42
2019-04-21T07:27:43.121Z,28.82
2019-04-21T07:30:13.379Z,26.60
2019-04-21T07:32:50.055Z,28.95
2019-04-21T07:35:17.173Z,27.56
2019-04-21T07:37:50.812Z,30.81
2019-04-21T07:40:17.796Z,29.65
2019-04-21T07:42:49.809Z,27.48
2019-04-21T07:45:16.832Z,25.94
2019-04-21T07:48:16.157Z,29.36
2019-04-21T07:50:52.039Z,26.52
2019-04-21T07:53:34.502Z,26.96
2019-04-21T07:55:42.950Z,26.27
2019-04-21T07:58:37.346Z,26.01
2019-04-21T08:01:04.432Z,25.68
2019-04-21T08:03:39.909Z,24.22
2019-04-21T08:06:12.500Z,25.31
2019-04-21T08:08:40.728Z,26.76
2019-04-21T08:11:10.927Z,23.24
2019-04-21T08:13:47.313Z,25.14
2019-04-21T08:18:52.413Z,26.64
2019-04-21T08:21:23.633Z,28.81
2019-04-21T08:23:55.239Z,29.24
2019-04-21T08:26:32.443Z,27.46
2019-04-21T08:29:12.602Z,26.91
2019-04-21T08:31:38.968Z,26.31
2019-04-21T08:36:41.784Z,28.89
2019-04-21T08:39:13.159Z,23.81
2019-04-21T08:41:43.978Z,26.08
2019-04-21T08:44:24.287Z,28.99
2019-04-21T08:46:52.608Z,28.36
2019-04-21T08:49:20.330Z,25.91
2019-04-21T08:52:08.288Z,25.65
2019-04-21T08:54:27.094Z,23.78
2019-04-21T08:57:28.858Z,28.44
2019-04-21T09:00:05.863Z,25.49
2019-04-21T09:02:44.761Z,24.66
2019-04-21T09:05:12.182Z,21.70
2019-04-21T09:07:46.704Z,22.60
2019-04-21T09:10:20.473Z,21.12
2019-04-21T09:12:53.499Z,22.03
2019-04-21T09:15:27.673Z,23.20
2019-04-21T09:17:49.036Z,22.65
2019-04-21T09:20:32.604Z,26.20
2019-04-21T09:23:00.458Z,21.81
2019-04-21T09:25:44.593Z,24.75
2019-04-21T09:28:03.987Z,26.41
2019-04-21T09:30:22.064Z,24.23
2019-04-21T09:32:56.086Z,26.68
2019-04-21T09:35:25.273Z,28.10
2019-04-21T09:38:02.775Z,23.51
2019-04-21T09:40:34.427Z,24.21
2019-04-21T09:43:04.777Z,24.58
2019-04-21T09:45:33.296Z,25.35
2019-04-21T09:48:10.123Z,26.85
2019-04-21T09:50:37.891Z,24.09
2019-04-21T09:53:17.891Z,20.28
2019-04-21T09:55:49.992Z,19.76
2019-04-21T09:58:23.950Z,19.81
2019-04-21T10:01:00.155Z,19.08
2019-04-21T10:03:20.836Z,18.21
2019-04-21T10:05:51.965Z,19.81
2019-04-21T10:08:22.959Z,22.91
2019-04-21T10:10:54.699Z,22.65
2019-04-21T10:13:25.501Z,25.55
2019-04-21T10:16:15.232Z,22.64
2019-04-21T10:18:46.138Z,20.43
2019-04-21T10:21:17.434Z,25.13
2019-04-21T10:23:48.332Z,24.01
2019-04-21T10:26:18.950Z,22.95
2019-04-21T10:28:50.974Z,23.75
2019-04-21T10:31:22.776Z,21.85
2019-04-21T10:33:54.521Z,21.78
2019-04-21T10:36:26.775Z,22.56
2019-04-21T10:38:58.986Z,26.07
2019-04-21T10:41:30.193Z,26.93
2019-04-21T10:44:01.108Z,27.89
2019-04-21T10:46:32.875Z,25.23
2019-04-21T10:49:04.414Z,25.83
2019-04-21T10:51:35.258Z,26.89
2019-04-21T10:54:06.303Z,30.64
2019-04-21T10:56:42.408Z,30.14
2019-04-21T10:59:10.234Z,30.08
2019-04-21T11:01:41.554Z,31.13
2019-04-21T11:04:34.598Z,28.85
2019-04-21T11:07:14.385Z,28.58
2019-04-21T11:09:42.344Z,32.64
2019-04-21T11:12:13.541Z,29.64
2019-04-21T11:14:45.203Z,32.38
2019-04-21T11:17:16.460Z,30.43
2019-04-21T11:19:48.553Z,29.55
2019-04-21T11:22:20.881Z,30.27
2019-04-21T11:24:51.752Z,31.05
2019-04-21T11:27:22.772Z,32.45
2019-04-21T11:29:53.620Z,33.39
2019-04-21T11:32:25.257Z,33.18
2019-04-21T11:34:57.006Z,31.66
2019-04-21T11:37:32.308Z,31.09
2019-04-21T11:40:08.611Z,30.58
2019-04-21T11:42:39.736Z,30.67
2019-04-21T11:45:14.660Z,31.40
2019-04-21T11:48:04.170Z,30.50
2019-04-21T11:50:35.198Z,32.38
2019-04-21T11:53:07.077Z,30.48
2019-04-21T11:55:41.720Z,30.70
2019-04-21T11:58:11.869Z,31.76
2019-04-21T12:00:43.760Z,31.65
2019-04-21T12:03:15.685Z,34.45
2019-04-21T12:05:47.752Z,31.08
2019-04-21T12:08:29.793Z,33.94
2019-04-21T12:10:51.537Z,31.86
2019-04-21T12:13:22.415Z,32.16
2019-04-21T12:15:53.096Z,30.96
2019-04-21T12:18:26.660Z,29.68
2019-04-21T12:20:57.545Z,31.61
2019-04-21T12:23:28.530Z,33.12
2019-04-21T12:25:59.268Z,31.46
2019-04-21T12:28:30.378Z,31.51
2019-04-21T12:31:01.245Z,33.18
2019-04-21T12:33:51.850Z,33.93
2019-04-21T12:36:24.161Z,32.16
2019-04-21T12:38:59.293Z,32.79
2019-04-21T12:41:28.696Z,33.81
2019-04-21T12:44:00.457Z,33.01
2019-04-21T12:46:31.844Z,35.10
2019-04-21T12:49:04.058Z,32.11
2019-04-21T12:51:35.623Z,33.22
2019-04-21T12:54:08.027Z,32.47
2019-04-21T12:56:38.882Z,33.32
2019-04-21T12:59:10.008Z,31.50
2019-04-21T13:01:41.169Z,34.27
2019-04-21T13:04:13.400Z,33.46
2019-04-21T13:06:45.629Z,34.51
2019-04-21T13:09:20.218Z,32.47
2019-04-21T13:11:49.005Z,33.57
2019-04-21T13:14:19.928Z,35.78
2019-04-21T13:16:51.741Z,33.89
2019-04-21T13:19:23.167Z,33.99
2019-04-21T13:21:54.284Z,32.30
2019-04-21T13:24:26.071Z,32.73
2019-04-21T13:26:59.746Z,31.43
2019-04-21T13:29:30.283Z,32.33
2019-04-21T13:32:03.627Z,30.67
2019-04-21T13:34:33.825Z,30.74
2019-04-21T13:37:05.718Z,29.44
2019-04-21T13:40:14.449Z,29.95
2019-04-21T13:42:34.280Z,31.71
2019-04-21T13:45:00.963Z,33.20
2019-04-21T13:47:32.507Z,32.05
2019-04-21T13:50:05.328Z,31.78
2019-04-21T13:52:36.490Z,30.12
2019-04-21T13:55:09.505Z,31.77
2019-04-21T13:57:40.942Z,30.27
2019-04-21T14:00:13.203Z,30.43
2019-04-21T14:02:44.805Z,31.84
2019-04-21T14:05:16.071Z,30.40
2019-04-21T14:07:48.056Z,29.55
2019-04-21T14:10:21.734Z,32.73
2019-04-21T14:12:54.120Z,30.55
2019-04-21T14:15:28.327Z,31.38
2019-04-21T14:18:00.256Z,29.74
2019-04-21T14:20:31.232Z,28.74
2019-04-21T14:23:13.263Z,32.13
2019-04-21T14:25:35.516Z,32.65
2019-04-21T14:28:06.309Z,29.05
2019-04-21T14:30:36.924Z,31.87
2019-04-21T14:33:07.901Z,28.90
2019-04-21T14:35:38.984Z,31.58
2019-04-21T14:38:10.845Z,28.48
2019-04-21T14:40:42.000Z,30.53
2019-04-21T14:43:16.447Z,30.27
2019-04-21T14:46:06.447Z,29.50
2019-04-21T14:48:57.200Z,29.83
2019-04-21T14:51:47.480Z,29.10
2019-04-21T14:54:38.419Z,28.65
2019-04-21T14:57:09.393Z,30.21
2019-04-21T14:59:40.134Z,28.76
2019-04-21T15:02:11.752Z,30.51
2019-04-21T15:04:43.846Z,30.06
2019-04-21T15:07:15.004Z,29.77
2019-04-21T15:09:46.461Z,28.88
2019-04-21T15:12:18.223Z,30.98
2019-04-21T15:14:49.855Z,29.78
2019-04-21T15:17:22.520Z,29.34
2019-04-21T15:20:00.697Z,30.39
2019-04-21T15:22:26.155Z,29.83
2019-04-21T15:24:58.342Z,30.77
2019-04-21T15:27:30.639Z,30.93
2019-04-21T15:30:02.827Z,29.96
2019-04-21T15:32:34.624Z,31.06
2019-04-21T15:35:06.908Z,30.23
2019-04-21T15:37:37.961Z,31.18
2019-04-21T15:40:19.301Z,30.96
2019-04-21T15:42:42.218Z,29.87
2019-04-21T15:45:12.905Z,29.92
2019-04-21T15:47:44.176Z,30.22
2019-04-21T15:50:17.819Z,31.12
2019-04-21T15:52:47.847Z,31.01
2019-04-21T15:55:37.420Z,32.52
2019-04-21T15:58:14.519Z,29.40
2019-04-21T16:00:54.410Z,30.82
2019-04-21T16:03:25.230Z,32.27
2019-04-21T16:05:55.912Z,30.68
2019-04-21T16:08:27.103Z,31.03
2019-04-21T16:11:01.946Z,31.47
2019-04-21T16:13:31.842Z,30.91
2019-04-21T16:16:04.171Z,29.77
2019-04-21T16:18:36.270Z,32.53
2019-04-21T16:21:08.326Z,31.41
2019-04-21T16:23:40.415Z,31.65
2019-04-21T16:26:12.658Z,32.68
2019-04-21T16:28:44.862Z,31.97
2019-04-21T16:31:16.371Z,32.48
2019-04-21T16:33:47.201Z,31.73
2019-04-21T16:36:18.462Z,31.33
2019-04-21T16:38:51.464Z,31.54
2019-04-21T16:41:22.456Z,32.54
2019-04-21T16:43:53.292Z,31.94
2019-04-21T16:46:25.184Z,33.08
2019-04-21T16:48:56.090Z,31.21
2019-04-21T16:51:28.137Z,33.07
2019-04-21T16:54:05.919Z,30.76
2019-04-21T16:56:41.815Z,33.22
2019-04-21T16:59:20.879Z,33.84
2019-04-21T17:01:52.474Z,34.23
2019-04-21T17:04:24.473Z,33.05
2019-04-21T17:06:55.525Z,35.38
2019-04-21T17:09:26.612Z,34.74
2019-04-21T17:12:01.732Z,33.74
2019-04-21T17:14:45.268Z,33.26
2019-04-21T17:17:25.567Z,33.51
2019-04-21T17:19:42.067Z,34.84
2019-04-21T17:22:11.516Z,35.34
2019-04-21T17:24:44.261Z,36.79
2019-04-21T17:27:15.412Z,36.24
2019-04-21T17:29:46.368Z,37.67
2019-04-21T17:32:18.381Z,37.78
2019-04-21T17:34:50.181Z,37.39
2019-04-21T17:37:25.041Z,37.83
2019-04-21T17:39:54.543Z,42.10
2019-04-21T17:42:34.514Z,40.05
2019-04-21T17:44:57.615Z,45.29
2019-04-21T17:47:41.549Z,43.72
2019-04-21T17:50:15.641Z,46.94
2019-04-21T17:52:56.298Z,46.72
2019-04-21T17:55:29.879Z,46.45
2019-04-21T17:58:14.913Z,47.32
2019-04-21T18:01:10.366Z,47.66
2019-04-21T18:03:40.707Z,46.38
2019-04-21T18:05:59.441Z,46.35
2019-04-21T18:08:40.110Z,46.66
2019-04-21T18:11:03.365Z,46.64
2019-04-21T18:13:26.744Z,47.34
2019-04-21T18:16:09.632Z,48.29
2019-04-21T18:18:30.603Z,49.13
2019-04-21T18:21:18.655Z,52.07
2019-04-21T18:24:05.679Z,53.45
2019-04-21T18:26:40.578Z,54.75
2019-04-21T18:29:05.492Z,55.89
2019-04-21T18:31:44.791Z,56.81
2019-04-21T18:34:32.335Z,55.18
2019-04-21T18:37:14.210Z,52.83
2019-04-21T18:40:02.420Z,52.06
2019-04-21T18:42:48.163Z,52.21
2019-04-21T18:48:18.365Z,50.01
2019-04-21T18:50:57.353Z,50.12
2019-04-21T18:53:46.992Z,48.69
2019-04-21T18:56:08.104Z,52.95
2019-04-21T18:58:38.360Z,58.08
2019-04-21T19:01:16.111Z,53.92
2019-04-21T19:03:47.091Z,59.30
2019-04-21T19:06:25.691Z,60.96
2019-04-21T19:09:11.772Z,61.74
2019-04-21T19:11:46.762Z,62.91
2019-04-21T19:14:36.395Z,63.68
2019-04-21T19:22:06.460Z,55.81
2019-04-21T19:24:37.029Z,56.02
2019-04-21T19:27:12.136Z,53.15
2019-04-21T19:29:53.980Z,52.23
2019-04-21T19:32:23.908Z,51.67
2019-04-21T19:34:40.602Z,50.18
2019-04-21T19:37:15.445Z,49.19
2019-04-21T19:40:00.311Z,48.08
2019-04-21T19:42:29.461Z,45.98
2019-04-21T19:45:06.140Z,45.56
2019-04-21T19:47:51.445Z,45.59
2019-04-21T19:50:24.904Z,45.27
2019-04-21T19:52:48.621Z,45.46
2019-04-21T19:55:14.430Z,44.60
2019-04-21T19:57:45.510Z,45.81
2019-04-21T20:00:19.321Z,48.44
2019-04-21T20:02:50.694Z,50.26
2019-04-21T20:05:35.226Z,49.32
2019-04-21T20:08:11.656Z,48.22
2019-04-21T20:10:48.401Z,46.42
2019-04-21T20:13:38.466Z,46.05
2019-04-21T20:15:56.896Z,45.92
2019-04-21T20:18:24.429Z,45.42
2019-04-21T20:20:46.015Z,45.65
2019-04-21T20:23:22.821Z,45.67
2019-04-21T20:25:57.770Z,44.71
2019-04-21T20:28:37.230Z,45.04
2019-04-21T20:31:19.189Z,46.78
2019-04-21T20:34:00.160Z,47.18
2019-04-21T20:36:31.390Z,48.82
2019-04-21T20:38:50.131Z,49.83
2019-04-21T20:41:31.470Z,50.89
2019-04-21T20:44:06.182Z,51.18
2019-04-21T20:46:40.270Z,51.16
2019-04-21T20:49:06.979Z,53.10
2019-04-21T20:51:42.468Z,52.55
2019-04-21T20:54:17.315Z,50.86
2019-04-21T20:56:49.752Z,48.98
2019-04-21T20:59:20.806Z,49.46
2019-04-21T21:02:00.483Z,47.72
2019-04-21T21:04:21.587Z,45.52
2019-04-21T21:06:59.562Z,46.44
2019-04-21T21:09:28.196Z,45.56
2019-04-21T21:12:19.472Z,44.79
2019-04-21T21:14:36.276Z,44.04
2019-04-21T21:17:13.420Z,43.84
2019-04-21T21:19:46.935Z,44.48
2019-04-21T21:22:09.741Z,43.69
2019-04-21T21:24:46.104Z,44.42
2019-04-21T21:27:19.506Z,44.19
2019-04-21T21:29:49.881Z,43.34
2019-04-21T21:32:29.157Z,43.41
2019-04-21T21:35:01.416Z,43.96
2019-04-21T21:37:52.458Z,41.76
2019-04-21T21:40:02.853Z,43.09
2019-04-21T21:42:26.463Z,42.93
2019-04-21T21:44:58.648Z,43.43
2019-04-21T21:47:46.331Z,42.48
2019-04-21T21:50:07.652Z,43.02
2019-04-21T21:52:45.200Z,43.43
2019-04-21T21:55:03.672Z,44.75
2019-04-21T21:57:44.500Z,45.15
2019-04-21T22:00:12.386Z,45.38
2019-04-21T22:02:47.879Z,45.41
2019-04-21T22:05:21.396Z,46.28
2019-04-21T22:07:48.664Z,47.32
2019-04-21T22:10:20.169Z,47.01
2019-04-21T22:12:59.783Z,46.04
2019-04-21T22:15:26.812Z,45.98
2019-04-21T22:18:22.513Z,45.69
2019-04-21T22:20:44.880Z,44.94
2019-04-21T22:23:07.359Z,45.14
2019-04-21T22:25:36.891Z,45.17
2019-04-21T22:28:05.836Z,45.21
2019-04-21T22:30:42.155Z,45.86
2019-04-21T22:33:13.716Z,45.96
2019-04-21T22:35:48.902Z,45.91
2019-04-21T22:38:28.306Z,46.50
2019-04-21T22:41:02.918Z,46.82
2019-04-21T22:43:27.265Z,47.85
2019-04-21T22:45:53.591Z,48.18
2019-04-21T22:48:27.277Z,49.46
2019-04-21T22:50:58.201Z,50.13
2019-04-21T22:53:36.233Z,50.28
2019-04-21T22:56:10.875Z,50.36
2019-04-21T22:58:39.423Z,51.07
2019-04-21T23:01:09.597Z,51.16
2019-04-21T23:03:47.141Z,51.28
2019-04-21T23:06:17.905Z,50.76
2019-04-21T23:08:46.127Z,50.85
2019-04-21T23:11:18.060Z,52.35
2019-04-21T23:14:01.991Z,51.96
2019-04-21T23:16:32.259Z,50.94
2019-04-21T23:19:17.032Z,51.41
2019-04-21T23:21:55.423Z,51.55
2019-04-21T23:24:26.448Z,51.56
2019-04-21T23:26:49.350Z,51.56
2019-04-21T23:29:40.393Z,51.07
2019-04-21T23:32:01.899Z,50.41
2019-04-21T23:34:18.393Z,49.05
2019-04-21T23:36:53.162Z,47.98
2019-04-21T23:39:23.660Z,49.21
2019-04-21T23:41:51.636Z,48.32
2019-04-21T23:44:24.093Z,48.09
2019-04-21T23:47:00.585Z,48.53
2019-04-21T23:49:39.170Z,48.82
2019-04-21T23:52:04.435Z,49.21
2019-04-21T23:54:33.498Z,49.19
2019-04-21T23:57:14.181Z,49.83
2019-04-21T23:59:40.998Z,49.88
